Parkstone, United Kingdom
Current Conditions -  °F | °C
As of 9:20 AM on Friday 19 Dec 2014 (Local Time) from EGHH Reporting Station
Few Clouds Few Clouds  
Wind Chill: 42°   Ceiling: Unl
Heat Index: 48°   Visibility: 6mi
Dew Point: 43°   Wind: 16mph
Humidity: 82%   Direction: 310°NW
Pressure: 29.97"   Gusts: NA
Location:  50.73°N, 1.94°W
Report Text: EGHH 190920Z 31014KT 280V350 9999 FEW020 09/06 Q1015
Loading
Personal Weather Stations






























Interactive Weather Map New forecast layout! Learn more

10-Day Weather Forecast

Advertisements
Track Severe Weather on mobile